Alcester, South Dakota
Current Conditions -  °F | °C
As of 3:15 PM on Monday 24 Nov 2014 (Local Time) from KLRJ Reporting Station
Overcast Overcast  
Wind Chill: 14°   Ceiling: 3100
Heat Index: 28°   Visibility: 10mi
Dew Point: 16°   Wind: 25mph
Humidity: 59%   Direction: 320°NW
Pressure: 29.81"   Gusts: 33mph
Location:  43.02°N, 96.63°W
Report Text: KLRJ 242115Z AUTO 32022G29KT 10SM OVC031 M02/M09 A2981 RMK AO2
Loading
Personal Weather Stations






























Interactive Weather Map New forecast layout! Learn more

10-Day Weather Forecast

Advertisements
Track Severe Weather on mobile